Terminal Aerodrome Forecast
Issued by NWS Boise, ID

Home | Current Version | Previous Version | Text Only | Print | Product List | Glossary On
Versions: 1 2 3 4 5 6 7 8 9 10 11 12 13 14 15
000
FTUS45 KBOI 232320
TAFBOI
TAF
KBOI 232320Z 2400/2424 VRB03KT P6SM BKN100
     FM241000 12015KT P6SM VCSH SCT040 BKN080
     FM241400 12015KT P6SM -RA SCT025 OVC040
     FM242000 13010KT P6SM -SHRA VCTS SCT050CB BKN080=

USA.gov is the U.S. government's official web portal to all federal, state and local government web resources and services.